createdAt,value
2019-05-29T00:01:20.405Z,100150.98
2019-05-29T00:03:47.869Z,100148.38
2019-05-29T00:06:16.539Z,100158.41
2019-05-29T00:08:44.983Z,100167.70
2019-05-29T00:11:14.298Z,100163.78
2019-05-29T00:13:42.867Z,100160.05
2019-05-29T00:16:12.440Z,100166.17
2019-05-29T00:18:40.947Z,100171.51
2019-05-29T00:21:11.521Z,100175.66
2019-05-29T00:23:39.899Z,100173.11
2019-05-29T00:26:08.385Z,100173.28
2019-05-29T00:28:36.795Z,100185.63
2019-05-29T00:31:05.775Z,100177.75
2019-05-29T00:33:34.340Z,100187.27
2019-05-29T00:36:02.803Z,100184.95
2019-05-29T00:38:31.236Z,100191.62
2019-05-29T00:40:59.686Z,100189.55
2019-05-29T00:43:28.365Z,100191.02
2019-05-29T00:45:56.807Z,100192.23
2019-05-29T00:48:25.240Z,100197.98
2019-05-29T00:50:53.712Z,100197.30
2019-05-29T00:53:22.285Z,100202.80
2019-05-29T00:55:50.725Z,100203.17
2019-05-29T00:58:19.845Z,100205.00
2019-05-29T01:00:48.560Z,100203.44
2019-05-29T01:03:17.919Z,100207.60
2019-05-29T01:05:46.451Z,100204.23
2019-05-29T01:08:14.903Z,100198.59
2019-05-29T01:10:43.406Z,100204.36
2019-05-29T01:13:13.121Z,100209.05
2019-05-29T01:15:41.702Z,100214.33
2019-05-29T01:18:10.176Z,100219.52
2019-05-29T01:20:38.706Z,100224.89
2019-05-29T01:23:07.162Z,100228.78
2019-05-29T01:25:35.662Z,100228.70
2019-05-29T01:28:04.289Z,100223.14
2019-05-29T01:30:32.725Z,100229.73
2019-05-29T01:33:01.167Z,100229.26
2019-05-29T01:35:29.640Z,100234.67
2019-05-29T01:37:58.070Z,100228.77
2019-05-29T01:40:29.395Z,100240.84
2019-05-29T01:42:56.727Z,100232.30
2019-05-29T01:45:25.168Z,100232.44
2019-05-29T01:47:53.606Z,100232.80
2019-05-29T01:50:22.070Z,100234.87
2019-05-29T01:52:50.521Z,100244.08
2019-05-29T01:55:19.774Z,100242.88
2019-05-29T01:57:48.399Z,100247.18
2019-05-29T02:00:17.779Z,100255.72
2019-05-29T02:02:46.275Z,100255.13
2019-05-29T02:05:15.766Z,100257.73
2019-05-29T02:07:44.363Z,100260.13
2019-05-29T02:10:13.229Z,100269.85
2019-05-29T02:12:41.761Z,100271.16
2019-05-29T02:15:23.767Z,100276.16
2019-05-29T02:17:40.889Z,100277.28
2019-05-29T02:20:09.985Z,100277.28
2019-05-29T02:22:38.567Z,100282.07
2019-05-29T02:25:07.824Z,100289.20
2019-05-29T02:27:36.361Z,100283.00
2019-05-29T02:30:09.970Z,100292.20
2019-05-29T02:32:38.503Z,100285.76
2019-05-29T02:35:07.879Z,100290.84
2019-05-29T02:37:36.314Z,100298.77
2019-05-29T02:40:06.703Z,100301.09
2019-05-29T02:42:35.301Z,100306.77
2019-05-29T02:45:05.368Z,100302.42
2019-05-29T02:47:33.800Z,100309.13
2019-05-29T02:50:02.519Z,100308.75
2019-05-29T02:52:30.959Z,100311.20
2019-05-29T02:54:59.395Z,100316.23
2019-05-29T02:57:29.102Z,100307.27
2019-05-29T02:59:57.666Z,100311.54
2019-05-29T03:02:27.765Z,100313.80
2019-05-29T03:04:56.479Z,100317.39
2019-05-29T03:07:26.327Z,100319.00
2019-05-29T03:09:55.093Z,100323.84
2019-05-29T03:12:25.038Z,100325.00
2019-05-29T03:14:53.702Z,100336.31
2019-05-29T03:17:23.634Z,100337.21
2019-05-29T03:19:52.366Z,100339.08
2019-05-29T03:22:20.792Z,100347.03
2019-05-29T03:24:49.300Z,100346.16
2019-05-29T03:27:17.754Z,100354.54
2019-05-29T03:29:46.365Z,100358.39
2019-05-29T03:32:14.983Z,100360.57
2019-05-29T03:34:47.018Z,100366.66
2019-05-29T03:37:13.594Z,100361.89
2019-05-29T03:39:42.027Z,100370.77
2019-05-29T03:42:10.547Z,100371.29
2019-05-29T03:44:38.983Z,100374.05
2019-05-29T03:47:07.486Z,100379.63
2019-05-29T03:49:37.424Z,100381.88
2019-05-29T03:52:06.153Z,100389.89
2019-05-29T03:54:35.493Z,100388.48
2019-05-29T03:57:04.295Z,100389.08
2019-05-29T03:59:32.924Z,100389.11
2019-05-29T04:02:01.854Z,100395.36
2019-05-29T04:04:31.332Z,100398.98
2019-05-29T04:07:00.275Z,100399.44
2019-05-29T04:09:29.233Z,100407.11
2019-05-29T04:11:58.373Z,100413.92
2019-05-29T04:14:27.535Z,100417.72
2019-05-29T04:17:00.264Z,100413.92
2019-05-29T04:19:31.517Z,100421.64
2019-05-29T04:22:03.174Z,100414.88
2019-05-29T04:24:34.052Z,100428.67
2019-05-29T04:27:04.182Z,100421.69
2019-05-29T04:29:34.215Z,100429.73
2019-05-29T04:32:02.762Z,100431.45
2019-05-29T04:34:31.812Z,100434.79
2019-05-29T04:37:01.356Z,100437.39
2019-05-29T04:39:30.611Z,100437.20
2019-05-29T04:41:59.290Z,100441.28
2019-05-29T04:44:28.851Z,100441.88
2019-05-29T04:47:10.212Z,100447.81
2019-05-29T04:49:29.242Z,100455.19
2019-05-29T04:51:57.989Z,100458.81
2019-05-29T04:54:26.455Z,100463.14
2019-05-29T04:56:54.952Z,100466.73
2019-05-29T04:59:23.395Z,100468.14
2019-05-29T05:01:51.871Z,100473.53
2019-05-29T05:04:20.368Z,100481.99
2019-05-29T05:06:48.833Z,100485.06
2019-05-29T05:09:17.326Z,100492.00
2019-05-29T05:11:45.741Z,100494.26
2019-05-29T05:14:14.299Z,100494.66
2019-05-29T05:16:42.788Z,100490.78
2019-05-29T05:19:11.233Z,100498.02
2019-05-29T05:21:40.270Z,100499.14
2019-05-29T05:24:08.944Z,100506.16
2019-05-29T05:26:38.394Z,100510.50
2019-05-29T05:29:07.025Z,100517.25
2019-05-29T05:31:37.078Z,100516.20
2019-05-29T05:34:05.623Z,100517.72
2019-05-29T05:36:34.714Z,100521.72
2019-05-29T05:39:03.571Z,100524.05
2019-05-29T05:41:36.849Z,100532.94
2019-05-29T05:44:04.432Z,100536.08
2019-05-29T05:46:33.007Z,100538.10
2019-05-29T05:49:01.425Z,100538.56
2019-05-29T05:51:31.185Z,100541.05
2019-05-29T05:53:59.698Z,100548.03
2019-05-29T05:56:28.138Z,100550.19
2019-05-29T05:58:58.647Z,100556.46
2019-05-29T06:01:27.061Z,100560.48
2019-05-29T06:03:55.561Z,100564.20
2019-05-29T06:06:23.998Z,100565.95
2019-05-29T06:08:52.463Z,100567.61
2019-05-29T06:11:20.911Z,100564.09
2019-05-29T06:13:49.355Z,100574.36
2019-05-29T06:16:17.811Z,100569.83
2019-05-29T06:18:46.255Z,100571.32
2019-05-29T06:21:14.729Z,100571.33
2019-05-29T06:23:43.742Z,100573.09
2019-05-29T06:26:12.496Z,100573.66
2019-05-29T06:28:41.296Z,100581.09
2019-05-29T06:31:09.862Z,100585.61
2019-05-29T06:33:39.477Z,100584.88
2019-05-29T06:36:08.168Z,100591.26
2019-05-29T06:38:37.637Z,100594.02
2019-05-29T06:41:06.321Z,100597.94
2019-05-29T06:43:35.758Z,100599.97
2019-05-29T06:46:04.333Z,100609.02
2019-05-29T06:48:46.358Z,100606.76
2019-05-29T06:51:04.695Z,100607.67
2019-05-29T06:53:33.146Z,100610.16
2019-05-29T06:56:02.661Z,100607.33
2019-05-29T06:58:31.710Z,100606.66
2019-05-29T07:01:00.968Z,100609.55
2019-05-29T07:03:29.422Z,100603.59
2019-05-29T07:05:57.934Z,100618.92
2019-05-29T07:08:38.319Z,100618.25
2019-05-29T07:10:56.653Z,100621.62
2019-05-29T07:13:25.117Z,100623.70
2019-05-29T07:15:53.582Z,100627.95
2019-05-29T07:18:22.073Z,100629.06
2019-05-29T07:20:50.498Z,100636.45
2019-05-29T07:23:19.137Z,100645.35
2019-05-29T07:25:47.584Z,100645.04
2019-05-29T07:28:16.071Z,100640.97
2019-05-29T07:30:53.697Z,100645.91
2019-05-29T07:33:14.693Z,100643.60
2019-05-29T07:35:43.589Z,100652.41
2019-05-29T07:38:12.198Z,100647.40
2019-05-29T07:40:42.574Z,100649.38
2019-05-29T07:43:10.801Z,100650.13
2019-05-29T07:45:40.621Z,100651.61
2019-05-29T07:48:09.629Z,100656.28
2019-05-29T07:50:38.082Z,100656.42
2019-05-29T07:53:06.683Z,100659.44
2019-05-29T07:55:35.156Z,100665.97
2019-05-29T07:58:03.732Z,100668.91
2019-05-29T08:00:35.601Z,100665.30
2019-05-29T08:03:02.373Z,100669.89
2019-05-29T08:05:30.885Z,100672.73
2019-05-29T08:07:59.390Z,100669.06
2019-05-29T08:10:27.884Z,100664.34
2019-05-29T08:12:56.385Z,100670.20
2019-05-29T08:15:25.017Z,100670.34
2019-05-29T08:17:53.452Z,100674.88
2019-05-29T08:20:22.024Z,100676.56
2019-05-29T08:22:51.050Z,100678.38
2019-05-29T08:25:19.822Z,100683.92
2019-05-29T08:27:48.880Z,100685.80
2019-05-29T08:30:18.463Z,100683.47
2019-05-29T08:32:47.051Z,100691.88
2019-05-29T08:35:15.623Z,100689.45
2019-05-29T08:37:44.976Z,100690.20
2019-05-29T08:40:15.064Z,100687.30
2019-05-29T08:42:43.517Z,100692.59
2019-05-29T08:45:12.263Z,100692.64
2019-05-29T08:47:41.492Z,100700.62
2019-05-29T08:50:18.673Z,100695.63
2019-05-29T08:52:42.165Z,100695.84
2019-05-29T08:55:13.807Z,100694.21
2019-05-29T08:57:42.552Z,100688.97
2019-05-29T09:00:12.417Z,100692.04
2019-05-29T09:02:40.847Z,100698.34
2019-05-29T09:05:09.992Z,100691.97
2019-05-29T09:07:38.690Z,100696.80
2019-05-29T09:10:08.658Z,100692.70
2019-05-29T09:12:37.128Z,100694.31
2019-05-29T09:15:09.302Z,100699.76
2019-05-29T09:17:38.148Z,100709.57
2019-05-29T09:20:07.527Z,100705.48
2019-05-29T09:22:35.988Z,100713.09
2019-05-29T09:25:06.879Z,100718.68
2019-05-29T09:27:35.381Z,100712.19
2019-05-29T09:30:05.160Z,100708.51
2019-05-29T09:32:49.232Z,100707.75
2019-05-29T09:35:04.599Z,100706.54
2019-05-29T09:37:33.068Z,100710.44
2019-05-29T09:40:01.503Z,100711.39
2019-05-29T09:42:29.954Z,100712.28
2019-05-29T09:44:58.482Z,100712.17
2019-05-29T09:47:26.935Z,100714.47
2019-05-29T09:49:55.358Z,100717.48
2019-05-29T09:52:23.894Z,100717.48
2019-05-29T09:54:53.579Z,100723.88
2019-05-29T09:57:22.583Z,100719.45
2019-05-29T09:59:51.112Z,100719.20
2019-05-29T10:02:19.552Z,100722.53
2019-05-29T10:04:48.075Z,100718.30
2019-05-29T10:07:16.616Z,100723.97
2019-05-29T10:09:45.085Z,100728.22
2019-05-29T10:12:13.589Z,100732.17
2019-05-29T10:14:42.238Z,100728.92
2019-05-29T10:17:12.744Z,100729.30
2019-05-29T10:19:40.862Z,100735.79
2019-05-29T10:22:09.344Z,100731.72
2019-05-29T10:24:37.770Z,100732.62
2019-05-29T10:27:06.830Z,100735.37
2019-05-29T10:29:35.455Z,100744.08
2019-05-29T10:32:04.028Z,100734.66
2019-05-29T10:34:32.548Z,100734.21
2019-05-29T10:37:01.117Z,100737.48
2019-05-29T10:39:29.552Z,100743.09
2019-05-29T10:41:57.996Z,100736.94
2019-05-29T10:44:26.434Z,100741.67
2019-05-29T10:46:56.543Z,100736.09
2019-05-29T10:49:25.431Z,100730.81
2019-05-29T10:52:10.855Z,100728.22
2019-05-29T10:54:24.318Z,100731.44
2019-05-29T10:56:53.078Z,100729.84
2019-05-29T10:59:21.832Z,100729.14
2019-05-29T11:01:51.268Z,100728.70
2019-05-29T11:04:20.245Z,100726.72
2019-05-29T11:06:50.159Z,100727.30
2019-05-29T11:09:18.823Z,100724.70
2019-05-29T11:11:48.450Z,100733.47
2019-05-29T11:14:17.215Z,100730.77
2019-05-29T11:16:46.965Z,100728.66
2019-05-29T11:19:15.654Z,100725.05
2019-05-29T11:21:44.203Z,100726.36
2019-05-29T11:24:12.837Z,100728.98
2019-05-29T11:26:41.333Z,100719.55
2019-05-29T11:29:09.801Z,100722.25
2019-05-29T11:31:39.801Z,100721.04
2019-05-29T11:34:08.241Z,100719.78
2019-05-29T11:36:36.859Z,100724.45
2019-05-29T11:39:09.410Z,100719.81
2019-05-29T11:41:41.098Z,100721.23
2019-05-29T11:44:09.575Z,100716.57
2019-05-29T11:46:38.028Z,100722.13
2019-05-29T11:49:06.567Z,100721.37
2019-05-29T11:51:35.019Z,100718.87
2019-05-29T11:54:03.450Z,100724.86
2019-05-29T11:56:32.010Z,100719.59
2019-05-29T11:59:00.732Z,100717.91
2019-05-29T12:01:29.620Z,100719.48
2019-05-29T12:04:20.551Z,100716.34
2019-05-29T12:06:28.438Z,100723.09
2019-05-29T12:08:57.962Z,100717.03
2019-05-29T12:11:26.660Z,100717.27
2019-05-29T12:13:56.073Z,100710.53
2019-05-29T12:16:24.714Z,100712.09
2019-05-29T12:18:53.661Z,100714.69
2019-05-29T12:21:22.219Z,100719.56
2019-05-29T12:23:51.901Z,100719.13
2019-05-29T12:26:22.981Z,100719.23
2019-05-29T12:28:50.615Z,100709.97
2019-05-29T12:31:19.068Z,100711.59
2019-05-29T12:33:47.529Z,100710.16
2019-05-29T12:36:16.062Z,100710.92
2019-05-29T12:38:44.583Z,100717.14
2019-05-29T12:41:13.144Z,100710.61
2019-05-29T12:43:41.667Z,100710.84
2019-05-29T12:46:10.100Z,100711.91
2019-05-29T12:48:38.674Z,100705.21
2019-05-29T12:51:07.107Z,100698.80
2019-05-29T12:53:35.606Z,100699.31
2019-05-29T12:56:04.834Z,100701.08
2019-05-29T12:58:33.355Z,100698.56
2019-05-29T13:01:03.018Z,100697.27
2019-05-29T13:03:31.946Z,100697.27
2019-05-29T13:06:00.502Z,100705.98
2019-05-29T13:08:28.925Z,100708.07
2019-05-29T13:10:58.238Z,100703.83
2019-05-29T13:13:26.867Z,100708.20
2019-05-29T13:15:56.607Z,100710.63
2019-05-29T13:18:25.258Z,100718.37
2019-05-29T13:20:54.742Z,100717.59
2019-05-29T13:23:23.269Z,100713.65
2019-05-29T13:25:51.877Z,100705.61
2019-05-29T13:28:20.310Z,100714.72
2019-05-29T13:30:48.831Z,100716.33
2019-05-29T13:33:17.412Z,100704.52
2019-05-29T13:35:45.940Z,100710.49
2019-05-29T13:38:14.377Z,100713.00
2019-05-29T13:40:42.981Z,100711.23
2019-05-29T13:43:15.541Z,100715.25
2019-05-29T13:45:41.847Z,100715.20
2019-05-29T13:48:10.314Z,100703.77
2019-05-29T13:50:38.743Z,100708.48
2019-05-29T13:53:07.580Z,100704.83
2019-05-29T13:55:36.361Z,100704.78
2019-05-29T13:58:05.827Z,100706.85
2019-05-29T14:00:35.181Z,100701.14
2019-05-29T14:03:04.882Z,100700.18
2019-05-29T14:05:33.423Z,100702.58
2019-05-29T14:08:02.751Z,100709.73
2019-05-29T14:10:31.395Z,100706.03
2019-05-29T14:13:00.974Z,100714.23
2019-05-29T14:15:29.859Z,100716.31
2019-05-29T14:17:58.677Z,100705.67
2019-05-29T14:20:27.173Z,100714.23
2019-05-29T14:22:55.605Z,100717.47
2019-05-29T14:25:24.141Z,100716.47
2019-05-29T14:27:52.573Z,100712.16
2019-05-29T14:30:21.244Z,100711.72
2019-05-29T14:32:49.711Z,100716.75
2019-05-29T14:35:18.391Z,100712.48
2019-05-29T14:37:46.852Z,100712.87
2019-05-29T14:40:17.255Z,100716.59
2019-05-29T14:42:45.779Z,100718.17
2019-05-29T14:45:16.029Z,100718.72
2019-05-29T14:47:44.716Z,100718.91
2019-05-29T14:50:13.690Z,100721.71
2019-05-29T14:52:42.139Z,100718.03
2019-05-29T14:55:16.200Z,100722.23
2019-05-29T14:57:41.233Z,100726.31
2019-05-29T15:00:22.829Z,100718.80
2019-05-29T15:02:42.669Z,100721.33
2019-05-29T15:05:12.555Z,100714.96
2019-05-29T15:07:42.016Z,100714.00
2019-05-29T15:10:23.890Z,100716.43
2019-05-29T15:12:41.576Z,100718.11
2019-05-29T15:15:11.482Z,100719.84
2019-05-29T15:17:40.952Z,100722.09
2019-05-29T15:20:12.339Z,100726.45
2019-05-29T15:22:40.496Z,100724.27
2019-05-29T15:25:18.376Z,100721.41
2019-05-29T15:27:40.205Z,100721.70
2019-05-29T15:30:11.382Z,100722.70
2019-05-29T15:32:39.897Z,100718.04
2019-05-29T15:35:12.779Z,100727.64
2019-05-29T15:37:39.322Z,100726.48
2019-05-29T15:40:08.871Z,100729.69
2019-05-29T15:42:37.430Z,100727.25
2019-05-29T15:45:11.817Z,100721.83
2019-05-29T15:47:40.517Z,100721.75
2019-05-29T15:50:11.794Z,100724.24
2019-05-29T15:52:41.522Z,100725.52
2019-05-29T15:55:24.611Z,100724.02
2019-05-29T15:57:41.053Z,100725.66
2019-05-29T16:00:11.370Z,100724.67
2019-05-29T16:02:40.351Z,100727.94
2019-05-29T16:05:11.186Z,100729.20
2019-05-29T16:07:39.922Z,100728.91
2019-05-29T16:10:13.084Z,100726.88
2019-05-29T16:12:40.192Z,100719.41
2019-05-29T16:15:11.272Z,100727.55
2019-05-29T16:17:39.981Z,100725.84
2019-05-29T16:20:12.470Z,100722.92
2019-05-29T16:22:40.895Z,100722.09
2019-05-29T16:25:10.823Z,100722.16
2019-05-29T16:27:39.391Z,100725.04
2019-05-29T16:30:08.864Z,100726.62
2019-05-29T16:32:37.456Z,100726.06
2019-05-29T16:35:07.730Z,100729.09
2019-05-29T16:37:36.234Z,100729.19
2019-05-29T16:40:14.165Z,100731.63
2019-05-29T16:42:42.942Z,100729.43
2019-05-29T16:45:12.512Z,100728.29
2019-05-29T16:47:41.239Z,100731.28
2019-05-29T16:50:10.532Z,100725.85
2019-05-29T16:52:39.035Z,100736.19
2019-05-29T16:55:08.036Z,100734.38
2019-05-29T16:57:36.534Z,100739.44
2019-05-29T17:00:07.184Z,100744.12
2019-05-29T17:02:35.710Z,100738.28
2019-05-29T17:05:08.167Z,100743.34
2019-05-29T17:07:36.666Z,100735.23
2019-05-29T17:10:09.424Z,100736.20
2019-05-29T17:12:37.878Z,100747.14
2019-05-29T17:15:09.416Z,100749.73
2019-05-29T17:17:37.901Z,100750.99
2019-05-29T17:20:09.760Z,100746.64
2019-05-29T17:22:38.346Z,100747.57
2019-05-29T17:25:07.750Z,100752.68
2019-05-29T17:27:36.260Z,100747.50
2019-05-29T17:30:06.944Z,100752.91
2019-05-29T17:32:35.436Z,100748.31
2019-05-29T17:35:06.392Z,100747.34
2019-05-29T17:37:34.879Z,100744.58
2019-05-29T17:40:04.621Z,100748.56
2019-05-29T17:42:33.090Z,100749.33
2019-05-29T17:45:01.815Z,100746.41
2019-05-29T17:47:30.402Z,100747.09
2019-05-29T17:49:58.840Z,100749.98
2019-05-29T17:52:27.342Z,100755.31
2019-05-29T17:54:55.808Z,100756.07
2019-05-29T17:57:24.253Z,100753.61
2019-05-29T17:59:52.751Z,100761.36
2019-05-29T18:02:22.213Z,100760.39
2019-05-29T18:04:50.790Z,100762.58
2019-05-29T18:07:20.512Z,100766.84
2019-05-29T18:09:49.229Z,100762.93
2019-05-29T18:12:19.051Z,100769.54
2019-05-29T18:14:47.716Z,100761.11
2019-05-29T18:17:17.724Z,100769.73
2019-05-29T18:19:46.229Z,100771.28
2019-05-29T18:22:14.726Z,100769.55
2019-05-29T18:24:43.263Z,100773.29
2019-05-29T18:27:11.774Z,100776.97
2019-05-29T18:29:40.218Z,100784.64
2019-05-29T18:32:08.786Z,100783.13
2019-05-29T18:34:37.235Z,100789.77
2019-05-29T18:37:05.893Z,100790.22
2019-05-29T18:39:34.420Z,100780.78
2019-05-29T18:42:02.934Z,100784.83
2019-05-29T18:44:31.366Z,100782.91
2019-05-29T18:47:01.014Z,100787.19
2019-05-29T18:49:29.552Z,100791.70
2019-05-29T18:52:00.288Z,100792.38
2019-05-29T18:54:28.317Z,100791.48
2019-05-29T18:57:13.648Z,100791.86
2019-05-29T18:59:27.537Z,100790.13
2019-05-29T19:01:56.282Z,100794.15
2019-05-29T19:04:25.515Z,100799.09
2019-05-29T19:06:54.232Z,100802.55
2019-05-29T19:09:23.650Z,100803.02
2019-05-29T19:11:52.236Z,100809.34
2019-05-29T19:14:21.766Z,100816.06
2019-05-29T19:16:50.337Z,100822.92
2019-05-29T19:19:18.773Z,100823.59
2019-05-29T19:21:47.346Z,100823.00
2019-05-29T19:24:15.911Z,100826.55
2019-05-29T19:26:44.349Z,100828.48
2019-05-29T19:29:12.858Z,100823.23
2019-05-29T19:31:42.611Z,100831.47
2019-05-29T19:34:11.241Z,100833.91
2019-05-29T19:36:39.793Z,100843.25
2019-05-29T19:39:08.816Z,100844.75
2019-05-29T19:41:37.267Z,100853.34
2019-05-29T19:44:05.704Z,100859.95
2019-05-29T19:46:48.568Z,100866.19
2019-05-29T19:49:04.611Z,100862.71
2019-05-29T19:51:33.567Z,100874.49
2019-05-29T19:54:02.220Z,100879.27
2019-05-29T19:56:31.726Z,100884.30
2019-05-29T19:59:00.399Z,100879.61
2019-05-29T20:01:34.158Z,100879.23
2019-05-29T20:03:59.157Z,100883.33
2019-05-29T20:06:28.781Z,100895.50
2019-05-29T20:08:57.712Z,100891.91
2019-05-29T20:11:27.572Z,100894.80
2019-05-29T20:13:56.112Z,100901.72
2019-05-29T20:16:24.675Z,100903.92
2019-05-29T20:18:53.111Z,100905.70
2019-05-29T20:21:21.790Z,100908.46
2019-05-29T20:23:50.257Z,100910.22
2019-05-29T20:26:18.778Z,100913.27
2019-05-29T20:28:47.241Z,100911.72
2019-05-29T20:31:15.733Z,100919.56
2019-05-29T20:33:44.180Z,100914.61
2019-05-29T20:36:12.702Z,100917.04
2019-05-29T20:38:41.415Z,100917.35
2019-05-29T20:41:09.894Z,100918.10
2019-05-29T20:43:39.632Z,100925.67
2019-05-29T20:46:08.439Z,100923.67
2019-05-29T20:48:36.955Z,100922.12
2019-05-29T20:51:05.628Z,100930.47
2019-05-29T20:53:35.280Z,100926.54
2019-05-29T20:56:04.233Z,100930.81
2019-05-29T20:58:33.746Z,100931.89
2019-05-29T21:01:03.382Z,100927.28
2019-05-29T21:03:32.307Z,100936.31
2019-05-29T21:06:00.781Z,100943.88
2019-05-29T21:08:29.311Z,100945.39
2019-05-29T21:10:57.753Z,100947.08
2019-05-29T21:13:26.190Z,100963.20
2019-05-29T21:15:54.648Z,100958.80
2019-05-29T21:18:23.155Z,100965.14
2019-05-29T21:20:51.612Z,100962.67
2019-05-29T21:23:20.094Z,100962.41
2019-05-29T21:25:48.525Z,100968.05
2019-05-29T21:28:16.960Z,100975.34
2019-05-29T21:30:45.775Z,100978.78
2019-05-29T21:33:14.301Z,100982.80
2019-05-29T21:35:44.188Z,100976.30
2019-05-29T21:38:12.827Z,100982.23
2019-05-29T21:40:42.439Z,100990.41
2019-05-29T21:43:11.082Z,100992.05
2019-05-29T21:45:40.952Z,100996.13
2019-05-29T21:48:09.552Z,100994.84
2019-05-29T21:50:38.823Z,101000.95
2019-05-29T21:53:07.658Z,100998.22
2019-05-29T21:55:37.447Z,101002.59
2019-05-29T21:58:06.142Z,101000.84
2019-05-29T22:00:49.505Z,100995.89
2019-05-29T22:03:18.005Z,100996.06
2019-05-29T22:05:46.857Z,100998.22
2019-05-29T22:08:15.603Z,100999.84
2019-05-29T22:10:44.764Z,101000.67
2019-05-29T22:13:13.436Z,101003.92
2019-05-29T22:15:41.897Z,101002.00
2019-05-29T22:18:10.339Z,101001.12
2019-05-29T22:20:38.904Z,101004.61
2019-05-29T22:23:07.552Z,101007.04
2019-05-29T22:25:36.065Z,101003.67
2019-05-29T22:28:04.634Z,100994.72
2019-05-29T22:30:33.256Z,100992.15
2019-05-29T22:33:02.035Z,101002.75
2019-05-29T22:35:30.388Z,100995.20
2019-05-29T22:38:00.048Z,100998.16
2019-05-29T22:40:28.726Z,100991.91
2019-05-29T22:42:57.608Z,101002.03
2019-05-29T22:45:26.074Z,100997.20
2019-05-29T22:47:55.762Z,100998.19
2019-05-29T22:50:24.290Z,101001.98
2019-05-29T22:52:53.818Z,101003.56
2019-05-29T22:55:22.433Z,101004.11
2019-05-29T22:57:51.873Z,101009.81
2019-05-29T23:00:20.917Z,101004.23
2019-05-29T23:02:49.359Z,101014.33
2019-05-29T23:05:18.473Z,101010.17
2019-05-29T23:07:47.230Z,101006.43
2019-05-29T23:10:16.497Z,101003.76
2019-05-29T23:12:44.933Z,101008.94
2019-05-29T23:15:14.643Z,100999.78
2019-05-29T23:17:43.177Z,101005.84
2019-05-29T23:20:12.150Z,101001.55
2019-05-29T23:22:40.677Z,100996.41
2019-05-29T23:25:10.061Z,101008.70
2019-05-29T23:27:38.500Z,101006.30
2019-05-29T23:30:10.922Z,101007.16
2019-05-29T23:32:39.502Z,101014.36
2019-05-29T23:35:08.679Z,101006.09
2019-05-29T23:37:37.196Z,100998.89
2019-05-29T23:40:08.115Z,101008.75
2019-05-29T23:42:36.546Z,101002.38
2019-05-29T23:45:08.853Z,101005.73
2019-05-29T23:47:37.282Z,101002.75
2019-05-29T23:50:07.152Z,100994.83
2019-05-29T23:52:35.622Z,100997.67
2019-05-29T23:55:05.495Z,100999.71
2019-05-29T23:57:33.926Z,100991.79
